Time;durP1;ratioP1;P1;durP2;ratioP2;P2;SDS_P1;SDS_P2;PMS_P1;PMS_P2;Temp;Humidity;BMP_temperature;BMP_pressure;BME280_temperature;BME280_humidity;BME280_pressure;Samples;Min_cycle;Max_cycle;Signal;HPM_P1;HPM_P2
2021/11/26 00:01:48;;;;;;;36.20;19.20;;;;;;;2.25;nan;99757.44;4992184;28;20037;-84
2021/11/26 00:04:14;;;;;;;39.88;21.15;;;;;;;2.24;nan;99759.22;5009442;28;20041;-84
2021/11/26 00:06:39;;;;;;;44.90;21.52;;;;;;;2.36;nan;99757.44;5012206;28;20040;-84
2021/11/26 00:09:05;;;;;;;44.65;22.38;;;;;;;2.41;nan;99750.09;5004975;28;20039;-84
2021/11/26 00:11:30;;;;;;;38.50;20.35;;;;;;;2.38;nan;99731.22;5001718;28;20030;-83
2021/11/26 00:14:45;;;;;;;39.83;20.70;;;;;;;2.36;nan;99738.31;4992444;28;20073;-84
2021/11/26 00:16:44;;;;;;;;;;;;;;;2.36;nan;99727.88;4994235;28;20057;-84
2021/11/26 00:19:10;;;;;;;40.50;21.08;;;;;;;2.20;nan;99729.09;5010020;28;19918;-84
2021/11/26 00:21:37;;;;;;;;;;;;;;;2.23;nan;99728.84;5014017;28;20034;-84
2021/11/26 00:24:05;;;;;;;40.45;19.92;;;;;;;2.31;nan;99720.41;5007453;28;20014;-85
2021/11/26 00:26:31;;;;;;;41.08;21.90;;;;;;;2.26;nan;99710.34;4989555;28;20042;-84
2021/11/26 00:28:56;;;;;;;42.13;21.85;;;;;;;2.27;nan;99713.81;5001229;28;20094;-84
2021/11/26 00:31:22;;;;;;;42.67;22.55;;;;;;;2.13;nan;99715.69;5006938;28;20034;-84
2021/11/26 00:33:47;;;;;;;40.83;21.05;;;;;;;2.16;nan;99714.63;4985350;28;20031;-84
2021/11/26 00:36:13;;;;;;;37.72;20.15;;;;;;;2.16;nan;99722.44;5000070;28;20050;-84
2021/11/26 00:38:38;;;;;;;41.33;21.92;;;;;;;2.10;nan;99725.53;5011904;28;20095;-84
2021/11/26 00:41:04;;;;;;;35.85;20.02;;;;;;;2.05;nan;99727.63;4991768;28;20201;-84
2021/11/26 00:43:30;;;;;;;33.53;18.38;;;;;;;2.09;nan;99708.22;4985302;28;20473;-83
2021/11/26 00:45:56;;;;;;;34.65;19.52;;;;;;;2.21;nan;99706.44;5001977;28;20046;-83
2021/11/26 00:48:22;;;;;;;35.33;18.75;;;;;;;2.20;nan;99708.22;5008691;28;20043;-84
2021/11/26 00:50:49;;;;;;;35.97;18.27;;;;;;;2.24;nan;99708.81;4991957;28;20042;-84
2021/11/26 00:53:14;;;;;;;37.13;18.30;;;;;;;2.26;nan;99707.72;5004284;28;20049;-84
2021/11/26 00:55:40;;;;;;;36.33;19.63;;;;;;;2.23;nan;99701.94;4982645;28;20503;-84
2021/11/26 00:58:05;;;;;;;36.22;19.48;;;;;;;2.21;nan;99699.44;4974874;28;20096;-85
2021/11/26 01:00:31;;;;;;;33.67;18.10;;;;;;;2.27;nan;99706.81;4994404;28;20088;-83
2021/11/26 01:02:57;;;;;;;31.88;17.50;;;;;;;2.28;nan;99711.06;5003120;28;20038;-84
2021/11/26 01:05:23;;;;;;;33.33;18.73;;;;;;;2.36;nan;99701.81;4999929;28;20525;-84
2021/11/26 01:07:48;;;;;;;32.60;17.92;;;;;;;2.35;nan;99698.38;4994520;28;20121;-84
2021/11/26 01:10:17;;;;;;;40.17;20.02;;;;;;;2.39;nan;99693.75;4991795;28;20069;-84
2021/11/26 01:12:43;;;;;;;35.00;18.38;;;;;;;2.40;nan;99692.78;5001075;28;20249;-84
2021/11/26 01:15:11;;;;;;;32.20;17.50;;;;;;;2.37;nan;99693.03;4998916;28;20045;-84
2021/11/26 01:17:37;;;;;;;35.53;18.88;;;;;;;2.32;nan;99696.84;5007476;28;20042;-84
2021/11/26 01:20:05;;;;;;;34.25;18.17;;;;;;;2.36;nan;99699.19;4999711;28;20034;-84
2021/11/26 01:22:30;;;;;;;33.83;17.98;;;;;;;2.38;nan;99698.13;5029760;28;20581;-84
2021/11/26 01:24:55;;;;;;;35.08;19.48;;;;;;;2.42;nan;99693.50;4990657;28;20035;-84
2021/11/26 01:27:23;;;;;;;32.83;18.40;;;;;;;2.34;nan;99688.91;5005444;28;20496;-84
2021/11/26 01:29:51;;;;;;;40.72;20.60;;;;;;;2.39;nan;99676.31;5009563;28;20038;-84
2021/11/26 01:32:17;;;;;;;34.00;18.65;;;;;;;2.38;nan;99685.06;5008582;28;20077;-82
2021/11/26 01:34:42;;;;;;;37.53;19.60;;;;;;;2.45;nan;99688.03;4999574;28;20036;-84
2021/11/26 01:37:10;;;;;;;41.60;21.08;;;;;;;2.45;nan;99675.00;5001387;28;20572;-83
2021/11/26 01:39:35;;;;;;;42.50;23.17;;;;;;;2.48;nan;99677.34;5009049;28;20290;-84
2021/11/26 01:42:01;;;;;;;41.42;22.50;;;;;;;2.46;nan;99674.06;4983480;28;20035;-85
2021/11/26 01:44:26;;;;;;;39.30;20.55;;;;;;;2.34;nan;99665.41;4990046;28;20069;-85
2021/11/26 01:46:52;;;;;;;38.92;20.00;;;;;;;2.42;nan;99668.25;4996077;28;20030;-84
2021/11/26 01:49:17;;;;;;;37.97;20.23;;;;;;;2.39;nan;99667.66;5010822;28;20061;-83
2021/11/26 01:51:43;;;;;;;41.28;21.77;;;;;;;2.37;nan;99656.53;4985723;28;20065;-84
2021/11/26 01:54:09;;;;;;;41.63;21.27;;;;;;;2.37;nan;99653.91;4987531;28;20049;-84
2021/11/26 01:56:35;;;;;;;39.85;21.35;;;;;;;2.31;nan;99650.84;5008854;28;20037;-84
2021/11/26 01:59:02;;;;;;;38.60;19.77;;;;;;;2.32;nan;99654.28;5007358;28;20266;-85
2021/11/26 02:01:27;;;;;;;39.67;21.40;;;;;;;2.22;nan;99642.91;5011015;28;20062;-84
2021/11/26 02:03:53;;;;;;;46.00;23.55;;;;;;;2.33;nan;99645.47;5014114;28;20034;-84
2021/11/26 02:06:18;;;;;;;36.75;20.23;;;;;;;2.32;nan;99643.84;5008348;28;20035;-84
2021/11/26 02:08:44;;;;;;;38.70;20.35;;;;;;;2.30;nan;99638.72;4998400;28;20083;-84
2021/11/26 02:11:10;;;;;;;37.33;19.75;;;;;;;2.33;nan;99635.03;5010624;28;20122;-84
2021/11/26 02:13:36;;;;;;;39.05;20.90;;;;;;;2.38;nan;99629.47;4996528;28;20045;-85
2021/11/26 02:16:04;;;;;;;39.65;20.98;;;;;;;2.39;nan;99623.31;5016090;28;20038;-84
2021/11/26 02:18:30;;;;;;;34.47;19.40;;;;;;;2.30;nan;99624.88;5005999;28;20045;-84
2021/11/26 02:20:55;;;;;;;34.28;19.02;;;;;;;2.33;nan;99620.22;4993088;28;20058;-85
2021/11/26 02:23:21;;;;;;;39.70;20.48;;;;;;;2.32;nan;99605.53;5023403;28;20053;-84
2021/11/26 02:25:46;;;;;;;37.65;19.80;;;;;;;2.38;nan;99600.78;5011051;28;20038;-85
2021/11/26 02:28:14;;;;;;;33.47;17.65;;;;;;;2.37;nan;99604.34;4982484;28;20040;-85
2021/11/26 02:30:41;;;;;;;37.75;19.77;;;;;;;2.46;nan;99590.56;5007670;28;20030;-84
2021/11/26 02:33:09;;;;;;;38.17;19.98;;;;;;;2.43;nan;99581.22;5004141;28;20053;-85
2021/11/26 02:35:36;;;;;;;35.95;19.13;;;;;;;2.40;nan;99578.00;5002098;28;20038;-85
2021/11/26 02:38:03;;;;;;;37.40;20.98;;;;;;;2.34;nan;99574.94;5022814;28;20038;-85
2021/11/26 02:40:31;;;;;;;36.88;20.40;;;;;;;2.36;nan;99566.16;5018814;28;20034;-85
2021/11/26 02:42:57;;;;;;;36.88;19.17;;;;;;;2.37;nan;99565.22;4988063;28;20026;-85
2021/11/26 02:45:23;;;;;;;35.00;19.05;;;;;;;2.38;nan;99553.81;5007338;28;20418;-85
2021/11/26 02:47:49;;;;;;;36.58;20.30;;;;;;;2.44;nan;99558.53;5017342;28;20116;-85
2021/11/26 02:50:17;;;;;;;36.13;19.98;;;;;;;2.42;nan;99550.00;5004371;28;20030;-84
2021/11/26 02:52:43;;;;;;;34.22;18.65;;;;;;;2.42;nan;99545.63;4995962;28;20049;-84
2021/11/26 02:55:11;;;;;;;36.20;19.92;;;;;;;2.41;nan;99536.16;5002824;28;20109;-85
2021/11/26 02:57:37;;;;;;;34.75;19.30;;;;;;;2.41;nan;99533.53;5001545;28;20061;-84
2021/11/26 03:00:04;;;;;;;38.17;20.40;;;;;;;2.38;nan;99532.94;4989444;28;20038;-84
2021/11/26 03:02:30;;;;;;;32.38;18.65;;;;;;;2.28;nan;99527.63;5025281;28;20313;-85
2021/11/26 03:04:55;;;;;;;32.60;18.65;;;;;;;2.29;nan;99527.53;4991805;28;20176;-84
2021/11/26 03:07:21;;;;;;;35.15;19.60;;;;;;;2.33;nan;99525.47;4992789;28;20045;-84
2021/11/26 03:09:46;;;;;;;34.78;19.35;;;;;;;2.36;nan;99524.41;5004116;28;20033;-85
2021/11/26 03:12:12;;;;;;;34.00;18.67;;;;;;;2.32;nan;99522.06;4981652;28;20031;-84
2021/11/26 03:14:37;;;;;;;34.47;18.90;;;;;;;2.30;nan;99516.13;4984238;28;20094;-84
2021/11/26 03:17:03;;;;;;;37.22;20.77;;;;;;;2.33;nan;99520.25;5018880;28;20042;-85
2021/11/26 03:19:29;;;;;;;32.30;19.42;;;;;;;2.28;nan;99519.81;4992124;28;20033;-84
2021/11/26 03:21:55;;;;;;;34.60;19.38;;;;;;;2.26;nan;99526.94;4983512;28;20087;-84
2021/11/26 03:24:20;;;;;;;35.47;19.80;;;;;;;2.29;nan;99519.69;5000023;28;20049;-85
2021/11/26 03:26:46;;;;;;;30.70;18.13;;;;;;;2.32;nan;99523.84;5001390;28;20046;-84
2021/11/26 03:29:11;;;;;;;36.60;19.42;;;;;;;2.36;nan;99524.41;4983667;28;20035;-84
2021/11/26 03:31:37;;;;;;;35.78;19.27;;;;;;;2.39;nan;99519.78;4983895;28;20045;-84
2021/11/26 03:34:03;;;;;;;33.83;19.42;;;;;;;2.30;nan;99517.91;5016571;28;20069;-85
2021/11/26 03:36:28;;;;;;;29.45;17.38;;;;;;;2.31;nan;99522.16;4999658;28;20030;-85
2021/11/26 03:38:53;;;;;;;29.48;17.33;;;;;;;2.31;nan;99523.00;5007610;28;20054;-85
2021/11/26 03:41:19;;;;;;;31.95;18.40;;;;;;;2.41;nan;99509.19;4994636;28;20100;-84
2021/11/26 03:43:44;;;;;;;28.55;16.88;;;;;;;2.36;nan;99508.75;5014906;28;20057;-84
2021/11/26 03:46:11;;;;;;;30.77;17.35;;;;;;;2.32;nan;99509.00;5002390;28;20101;-84
2021/11/26 03:48:36;;;;;;;27.67;16.10;;;;;;;2.37;nan;99505.22;4984300;28;20046;-84
2021/11/26 03:51:02;;;;;;;32.45;18.17;;;;;;;2.43;nan;99502.09;4990361;28;20041;-85
2021/11/26 03:53:27;;;;;;;34.50;18.55;;;;;;;2.43;nan;99496.88;5002110;28;20101;-85
2021/11/26 03:55:52;;;;;;;34.33;19.15;;;;;;;2.40;nan;99494.50;4988611;28;20041;-85
2021/11/26 03:58:18;;;;;;;31.90;18.23;;;;;;;2.38;nan;99492.03;4993584;28;20045;-85
2021/11/26 04:00:43;;;;;;;33.97;19.10;;;;;;;2.41;nan;99496.16;4991426;28;20102;-85
2021/11/26 04:03:09;;;;;;;32.15;17.40;;;;;;;2.43;nan;99491.66;5001380;28;20390;-84
2021/11/26 04:05:34;;;;;;;29.83;17.83;;;;;;;2.44;nan;99490.72;4985460;28;20100;-84
2021/11/26 04:08:00;;;;;;;36.85;19.60;;;;;;;2.49;nan;99486.75;5004882;28;20088;-85
2021/11/26 04:10:28;;;;;;;38.45;20.88;;;;;;;2.52;nan;99493.50;5017743;28;20042;-85
2021/11/26 04:12:54;;;;;;;36.60;20.30;;;;;;;2.52;nan;99485.69;5006053;28;20476;-85
2021/11/26 04:15:20;;;;;;;37.50;20.05;;;;;;;2.50;nan;99482.38;5000960;28;20089;-85
2021/11/26 04:17:49;;;;;;;37.38;20.73;;;;;;;2.44;nan;99478.47;4987095;28;20034;-84
2021/11/26 04:20:15;;;;;;;43.20;23.10;;;;;;;2.46;nan;99476.59;5015087;28;20108;-84
2021/11/26 04:22:41;;;;;;;39.30;21.42;;;;;;;2.45;nan;99477.50;5000563;28;20036;-84
2021/11/26 04:25:10;;;;;;;37.42;20.60;;;;;;;2.40;nan;99465.81;4988786;28;20039;-85
2021/11/26 04:27:36;;;;;;;39.03;21.35;;;;;;;2.40;nan;99468.44;5008493;28;20030;-85
2021/11/26 04:30:04;;;;;;;38.55;21.92;;;;;;;2.38;nan;99462.50;5003090;28;20045;-84
2021/11/26 04:32:31;;;;;;;42.97;21.73;;;;;;;2.37;nan;99464.28;5008637;28;20114;-84
2021/11/26 04:34:57;;;;;;;39.53;21.38;;;;;;;2.39;nan;99453.75;5015465;28;20033;-84
2021/11/26 04:37:22;;;;;;;38.50;20.52;;;;;;;2.31;nan;99455.19;4983925;28;20039;-85
2021/11/26 04:39:48;;;;;;;40.90;22.08;;;;;;;2.38;nan;99457.28;5017463;28;20030;-84
2021/11/26 04:42:13;;;;;;;37.35;20.98;;;;;;;2.37;nan;99455.63;4987143;28;20081;-84
2021/11/26 04:44:38;;;;;;;33.88;19.27;;;;;;;2.29;nan;99451.06;4988855;28;20514;-84
2021/11/26 04:47:04;;;;;;;34.40;19.65;;;;;;;2.36;nan;99448.75;4987095;28;20038;-85
2021/11/26 04:49:30;;;;;;;37.13;20.70;;;;;;;2.34;nan;99435.84;5015577;28;20487;-85
2021/11/26 04:51:56;;;;;;;39.58;20.67;;;;;;;2.29;nan;99435.41;4983606;28;20034;-84
2021/11/26 04:54:21;;;;;;;33.13;18.42;;;;;;;2.36;nan;99440.91;4990273;28;20086;-85
2021/11/26 04:56:46;;;;;;;37.05;21.08;;;;;;;2.31;nan;99438.69;5012292;28;20046;-84
2021/11/26 04:59:12;;;;;;;33.90;18.40;;;;;;;2.35;nan;99429.66;5002019;28;20499;-84
2021/11/26 05:01:37;;;;;;;39.08;21.10;;;;;;;2.42;nan;99435.22;5001697;28;20058;-85
2021/11/26 05:04:02;;;;;;;34.83;19.38;;;;;;;2.40;nan;99424.06;5000665;28;20088;-84
2021/11/26 05:06:28;;;;;;;34.92;19.33;;;;;;;2.41;nan;99433.53;5016068;28;20404;-84
2021/11/26 05:08:54;;;;;;;37.47;20.48;;;;;;;2.45;nan;99430.56;4989616;28;20457;-84
2021/11/26 05:11:20;;;;;;;39.80;21.45;;;;;;;2.48;nan;99429.47;4984547;28;20039;-84
2021/11/26 05:13:46;;;;;;;39.05;20.88;;;;;;;2.42;nan;99430.00;5021462;28;20034;-84
2021/11/26 05:16:14;;;;;;;39.08;21.17;;;;;;;2.40;nan;99421.47;5004123;28;20038;-84
2021/11/26 05:18:43;;;;;;;35.53;21.15;;;;;;;2.37;nan;99416.50;5015424;28;20034;-85
2021/11/26 05:21:09;;;;;;;37.65;21.48;;;;;;;2.40;nan;99418.84;4982332;28;20092;-84
2021/11/26 05:23:35;;;;;;;38.67;22.02;;;;;;;2.36;nan;99409.63;4982596;28;20029;-85
2021/11/26 05:26:00;;;;;;;39.38;21.52;;;;;;;2.39;nan;99402.38;5008393;28;20042;-84
2021/11/26 05:28:26;;;;;;;37.13;20.15;;;;;;;2.33;nan;99405.47;5000041;28;20320;-83
2021/11/26 05:30:52;;;;;;;34.90;20.67;;;;;;;2.29;nan;99398.88;5005610;28;20496;-83
2021/11/26 05:33:17;;;;;;;39.30;21.20;;;;;;;2.37;nan;99393.03;4987752;28;20034;-83
2021/11/26 05:35:43;;;;;;;37.92;21.80;;;;;;;2.37;nan;99391.25;5001299;28;20062;-83
2021/11/26 05:38:08;;;;;;;35.72;20.30;;;;;;;2.36;nan;99386.13;4983108;28;20049;-82
2021/11/26 05:40:33;;;;;;;37.85;21.08;;;;;;;2.37;nan;99391.25;4999609;28;20041;-83
2021/11/26 05:42:59;;;;;;;35.88;20.70;;;;;;;2.34;nan;99386.28;4993691;28;20065;-83
2021/11/26 05:45:24;;;;;;;41.05;21.80;;;;;;;2.34;nan;99376.66;4987770;28;20033;-83
2021/11/26 05:47:50;;;;;;;35.40;20.55;;;;;;;2.31;nan;99382.16;5012647;28;20052;-83
2021/11/26 05:50:18;;;;;;;34.85;19.95;;;;;;;2.28;nan;99381.56;4994101;28;20431;-83
2021/11/26 05:52:44;;;;;;;36.60;21.10;;;;;;;2.28;nan;99373.75;4992106;28;20038;-83
2021/11/26 05:55:14;;;;;;;39.53;22.27;;;;;;;2.29;nan;99376.22;4992198;28;20034;-82
2021/11/26 05:57:40;;;;;;;37.95;21.10;;;;;;;2.26;nan;99373.84;5019447;28;20041;-83
2021/11/26 06:00:08;;;;;;;35.38;19.95;;;;;;;2.14;nan;99369.66;4993575;28;20050;-83
2021/11/26 06:02:34;;;;;;;39.28;21.40;;;;;;;2.22;nan;99369.03;4993836;28;20216;-83
2021/11/26 06:04:59;;;;;;;40.80;20.35;;;;;;;2.12;nan;99359.38;4988349;28;20634;-85
2021/11/26 06:07:24;;;;;;;38.92;21.23;;;;;;;2.14;nan;99356.63;4995160;28;20250;-82
2021/11/26 06:09:50;;;;;;;34.72;20.42;;;;;;;2.09;nan;99362.22;4987886;28;20038;-82
2021/11/26 06:12:15;;;;;;;38.40;21.83;;;;;;;2.22;nan;99363.84;5013491;28;20332;-83
2021/11/26 06:14:40;;;;;;;35.70;19.80;;;;;;;2.22;nan;99356.81;5012534;28;20400;-83
2021/11/26 06:17:06;;;;;;;36.40;20.08;;;;;;;2.22;nan;99356.00;5008652;28;20113;-83
2021/11/26 06:19:32;;;;;;;36.60;20.70;;;;;;;2.19;nan;99359.66;5019579;28;20036;-83
2021/11/26 06:21:57;;;;;;;36.30;20.33;;;;;;;2.19;nan;99351.84;5004189;28;20096;-84
2021/11/26 06:24:22;;;;;;;38.72;21.10;;;;;;;2.28;nan;99345.88;5022436;28;20094;-83
2021/11/26 06:26:48;;;;;;;37.22;21.02;;;;;;;2.19;nan;99332.78;5003988;28;20034;-83
2021/11/26 06:29:13;;;;;;;37.22;20.70;;;;;;;2.15;nan;99340.03;5019477;28;20030;-84
2021/11/26 06:31:41;;;;;;;37.25;19.75;;;;;;;2.17;nan;99334.69;4989723;28;20077;-83
2021/11/26 06:34:07;;;;;;;35.28;20.23;;;;;;;2.21;nan;99339.50;5016926;28;20113;-83
2021/11/26 06:36:33;;;;;;;38.40;20.15;;;;;;;2.19;nan;99320.53;4996421;28;20030;-82
2021/11/26 06:38:59;;;;;;;36.33;20.58;;;;;;;2.17;nan;99313.81;4988952;28;20407;-84
2021/11/26 06:41:25;;;;;;;35.97;20.23;;;;;;;2.16;nan;99315.59;5011797;28;20035;-83
2021/11/26 06:43:50;;;;;;;37.05;20.63;;;;;;;2.20;nan;99309.19;5009508;28;20026;-84
2021/11/26 06:46:18;;;;;;;35.08;19.50;;;;;;;2.13;nan;99305.44;4992042;28;20387;-83
2021/11/26 06:48:44;;;;;;;38.75;20.92;;;;;;;2.19;nan;99304.91;5016217;28;20041;-83
2021/11/26 06:51:10;;;;;;;38.88;20.60;;;;;;;2.18;nan;99302.44;4989500;28;20074;-84
2021/11/26 06:53:35;;;;;;;35.92;21.20;;;;;;;2.18;nan;99300.66;5004978;28;20049;-84
2021/11/26 06:56:01;;;;;;;36.45;19.98;;;;;;;2.22;nan;99304.66;5002011;28;20038;-83
2021/11/26 06:58:26;;;;;;;37.92;20.48;;;;;;;2.20;nan;99303.97;4991417;28;20054;-83
2021/11/26 07:00:52;;;;;;;40.13;20.67;;;;;;;2.19;nan;99302.28;4989184;28;20428;-84
2021/11/26 07:03:17;;;;;;;36.72;20.48;;;;;;;2.20;nan;99300.53;4987393;28;20038;-83
2021/11/26 07:05:43;;;;;;;34.88;19.02;;;;;;;2.19;nan;99291.03;4989766;28;20061;-84
2021/11/26 07:08:08;;;;;;;37.30;20.45;;;;;;;2.20;nan;99288.31;4983760;28;20401;-83
2021/11/26 07:10:33;;;;;;;37.42;19.52;;;;;;;2.22;nan;99282.97;5017712;28;20049;-84
2021/11/26 07:12:59;;;;;;;39.28;21.10;;;;;;;2.22;nan;99278.59;4994152;28;20057;-83
2021/11/26 07:15:24;;;;;;;36.83;20.40;;;;;;;2.17;nan;99278.16;5004932;28;20047;-83
2021/11/26 07:17:50;;;;;;;34.35;20.00;;;;;;;2.22;nan;99273.38;4988007;28;20090;-83
2021/11/26 07:20:15;;;;;;;37.15;20.65;;;;;;;2.14;nan;99265.34;4998162;28;20659;-82
2021/11/26 07:22:42;;;;;;;33.78;18.95;;;;;;;2.20;nan;99259.63;4985502;28;20042;-82
2021/11/26 07:25:08;;;;;;;38.60;21.13;;;;;;;2.24;nan;99258.44;4986193;28;20510;-82
2021/11/26 07:27:34;;;;;;;36.53;20.48;;;;;;;2.27;nan;99249.50;5022794;28;20041;-83
2021/11/26 07:29:59;;;;;;;35.22;19.42;;;;;;;2.23;nan;99254.16;5016648;28;20042;-84
2021/11/26 07:32:25;;;;;;;39.33;20.35;;;;;;;2.24;nan;99255.81;4985090;28;20049;-82
2021/11/26 07:34:51;;;;;;;34.85;19.05;;;;;;;2.29;nan;99250.22;4992516;28;20043;-83
2021/11/26 07:37:17;;;;;;;33.92;19.13;;;;;;;2.36;nan;99243.50;4991746;28;20042;-83
2021/11/26 07:39:43;;;;;;;38.28;20.45;;;;;;;2.38;nan;99245.97;4995206;28;20038;-83
2021/11/26 07:42:10;;;;;;;35.90;19.55;;;;;;;2.33;nan;99246.38;5002069;28;20381;-83
2021/11/26 07:44:41;;;;;;;38.92;21.23;;;;;;;2.40;nan;99241.47;4984141;28;20042;-84
2021/11/26 07:47:11;;;;;;;38.75;20.40;;;;;;;2.48;nan;99239.00;5002516;28;20034;-83
2021/11/26 07:49:37;;;;;;;39.00;21.15;;;;;;;2.44;nan;99235.03;5015859;28;20088;-83
2021/11/26 07:52:03;;;;;;;42.28;21.98;;;;;;;2.50;nan;99231.88;5000548;28;20042;-83
2021/11/26 07:54:29;;;;;;;40.42;21.38;;;;;;;2.49;nan;99222.41;4995012;28;20030;-82
2021/11/26 07:56:54;;;;;;;40.22;21.88;;;;;;;2.46;nan;99218.28;4997160;28;20458;-83
2021/11/26 07:59:21;;;;;;;39.97;21.38;;;;;;;2.40;nan;99225.81;4992756;28;20034;-82
2021/11/26 08:01:47;;;;;;;39.25;21.25;;;;;;;2.39;nan;99216.34;4990213;28;20045;-82
2021/11/26 08:04:15;;;;;;;36.08;19.75;;;;;;;2.44;nan;99208.94;5018126;28;20038;-83
2021/11/26 08:06:45;;;;;;;38.17;21.40;;;;;;;2.48;nan;99212.91;5007245;28;20049;-83
2021/11/26 08:09:10;;;;;;;37.83;21.25;;;;;;;2.51;nan;99212.66;4987320;28;20096;-83
2021/11/26 08:11:35;;;;;;;40.42;21.85;;;;;;;2.52;nan;99206.47;4987401;28;20035;-83
2021/11/26 08:14:01;;;;;;;39.17;20.95;;;;;;;2.60;nan;99198.81;4988926;28;20045;-83
2021/11/26 08:16:27;;;;;;;39.10;21.00;;;;;;;2.61;nan;99194.44;5000860;28;20054;-83
2021/11/26 08:18:52;;;;;;;40.40;22.40;;;;;;;2.60;nan;99191.00;4999252;28;20293;-81
2021/11/26 08:21:17;;;;;;;36.85;20.98;;;;;;;2.62;nan;99191.69;4998708;28;20031;-83
2021/11/26 08:23:43;;;;;;;37.63;20.70;;;;;;;2.58;nan;99185.09;4986707;28;20106;-84
2021/11/26 08:26:08;;;;;;;41.05;22.42;;;;;;;2.62;nan;99183.88;4983472;28;20030;-82
2021/11/26 08:28:34;;;;;;;43.08;22.58;;;;;;;2.67;nan;99175.59;4983341;28;20139;-83
2021/11/26 08:30:59;;;;;;;42.17;23.02;;;;;;;2.63;nan;99177.66;4983444;28;20053;-83
2021/11/26 08:33:25;;;;;;;43.17;22.42;;;;;;;2.70;nan;99178.78;5016521;28;20066;-83
2021/11/26 08:35:52;;;;;;;46.35;22.25;;;;;;;2.73;nan;99167.25;5008570;28;20063;-83
2021/11/26 08:38:18;;;;;;;40.60;22.17;;;;;;;2.62;nan;99163.00;4982205;28;20072;-84
2021/11/26 08:40:43;;;;;;;42.58;22.38;;;;;;;2.51;nan;99168.31;4989001;28;20034;-83
2021/11/26 08:43:09;;;;;;;42.60;21.95;;;;;;;2.72;nan;99168.22;5016556;28;20068;-84
2021/11/26 08:45:34;;;;;;;39.13;22.45;;;;;;;2.78;nan;99161.63;4989196;28;20109;-84
2021/11/26 08:48:00;;;;;;;38.78;21.05;;;;;;;2.84;nan;99161.91;4983925;28;20030;-83
2021/11/26 08:50:26;;;;;;;40.65;21.88;;;;;;;2.82;nan;99155.19;5011270;28;20047;-84
2021/11/26 08:52:52;;;;;;;41.05;21.42;;;;;;;2.89;nan;99161.50;5000067;28;20518;-83
2021/11/26 08:55:18;;;;;;;41.00;22.73;;;;;;;2.87;nan;99152.97;5026295;28;20034;-83
2021/11/26 08:57:53;;;;;;;41.85;22.88;;;;;;;3.02;nan;99150.78;5005206;28;20034;-83
2021/11/26 09:00:20;;;;;;;;;;;;;;;3.03;nan;99158.50;5004809;28;20038;-84
2021/11/26 09:02:45;;;;;;;44.38;22.50;;;;;;;2.98;nan;99152.88;4986756;28;19909;-83
2021/11/26 09:05:11;;;;;;;42.40;22.23;;;;;;;3.00;nan;99153.53;5000404;28;20038;-84
2021/11/26 09:07:36;;;;;;;44.65;22.25;;;;;;;2.96;nan;99152.16;4981596;28;20118;-84
2021/11/26 09:10:02;;;;;;;41.88;21.30;;;;;;;2.98;nan;99158.09;5005045;28;20042;-84
2021/11/26 09:12:30;;;;;;;45.97;23.70;;;;;;;2.99;nan;99144.06;4984634;28;20031;-82
2021/11/26 09:14:55;;;;;;;44.85;23.75;;;;;;;3.12;nan;99141.16;4989700;28;20054;-83
2021/11/26 09:17:21;;;;;;;41.35;22.55;;;;;;;3.14;nan;99141.84;4983397;28;20416;-83
2021/11/26 09:19:47;;;;;;;41.88;22.58;;;;;;;3.16;nan;99132.91;5000295;28;20094;-84
2021/11/26 09:22:12;;;;;;;44.70;23.38;;;;;;;3.20;nan;99136.06;4999531;28;20034;-83
2021/11/26 09:24:38;;;;;;;42.95;22.63;;;;;;;3.22;nan;99131.53;4983658;28;20034;-83
2021/11/26 09:27:03;;;;;;;43.55;22.67;;;;;;;3.28;nan;99133.59;5000211;28;20064;-83
2021/11/26 09:29:29;;;;;;;44.53;23.23;;;;;;;3.21;nan;99123.84;4983048;28;20042;-83
2021/11/26 09:31:54;;;;;;;43.10;23.48;;;;;;;3.25;nan;99122.59;4981886;28;20070;-83
2021/11/26 09:34:20;;;;;;;40.45;21.83;;;;;;;3.27;nan;99112.84;4984409;28;20040;-83
2021/11/26 09:36:45;;;;;;;;;;;;;;;3.25;nan;99136.47;4982604;28;20117;-84
2021/11/26 09:39:10;;;;;;;42.83;22.47;;;;;;;3.35;nan;99132.06;4988924;28;19917;-84
2021/11/26 09:41:36;;;;;;;45.70;24.10;;;;;;;3.49;nan;99127.38;5001303;28;20035;-84
2021/11/26 09:44:03;;;;;;;40.00;22.58;;;;;;;3.52;nan;99119.25;4988340;28;20041;-84
2021/11/26 09:46:33;;;;;;;40.25;22.35;;;;;;;3.54;nan;99117.31;5009046;28;20042;-84
2021/11/26 09:48:58;;;;;;;45.53;23.38;;;;;;;3.53;nan;99119.13;4998630;28;20118;-84
2021/11/26 09:51:24;;;;;;;42.08;22.77;;;;;;;3.64;nan;99125.94;5013805;28;20133;-83
2021/11/26 09:53:50;;;;;;;36.80;21.52;;;;;;;3.51;nan;99121.03;4981500;28;20046;-84
2021/11/26 09:56:15;;;;;;;42.40;22.67;;;;;;;3.63;nan;99118.25;5001704;28;20027;-84
2021/11/26 09:58:40;;;;;;;42.92;22.13;;;;;;;3.65;nan;99111.09;4983953;28;20069;-83
2021/11/26 10:01:09;;;;;;;41.90;23.60;;;;;;;3.68;nan;99102.97;4997453;28;20041;-83
2021/11/26 10:03:41;;;;;;;41.35;25.40;;;;;;;3.58;nan;99095.97;4979658;28;20464;-85
2021/11/26 10:06:26;;;;;;;40.45;23.35;;;;;;;3.72;nan;99086.88;5014164;28;20065;-84
2021/11/26 10:09:16;;;;;;;42.08;22.65;;;;;;;3.73;nan;99079.84;4987416;28;20030;-84
2021/11/26 10:11:52;;;;;;;39.33;21.80;;;;;;;3.68;nan;99067.19;4991721;28;20109;-84
2021/11/26 10:14:19;;;;;;;45.03;23.75;;;;;;;3.74;nan;99058.78;4996197;28;20035;-84
2021/11/26 10:16:55;;;;;;;40.38;25.55;;;;;;;3.70;nan;99056.59;4979607;28;20415;-83
2021/11/26 10:19:38;;;;;;;39.20;22.08;;;;;;;3.79;nan;99071.41;5008026;28;20046;-83
2021/11/26 10:22:14;;;;;;;43.83;24.45;;;;;;;3.87;nan;99057.63;4998436;28;20607;-83
2021/11/26 10:24:40;;;;;;;49.17;24.73;;;;;;;3.88;nan;99057.47;5004145;28;20045;-83
2021/11/26 10:27:06;;;;;;;40.20;23.23;;;;;;;3.81;nan;99052.00;4998740;28;20061;-83
2021/11/26 10:29:34;;;;;;;43.42;23.10;;;;;;;3.79;nan;99047.88;4985681;28;20039;-84
2021/11/26 10:32:12;;;;;;;42.13;22.98;;;;;;;3.80;nan;99044.31;5007094;28;20519;-83
2021/11/26 10:34:40;;;;;;;41.78;26.80;;;;;;;3.71;nan;99032.91;4983619;28;20414;-83
2021/11/26 10:37:16;;;;;;;;;;;;;;;3.72;nan;99025.88;5014621;28;20570;-83
2021/11/26 10:39:41;;;;;;;;;;;;;;;3.77;nan;99016.66;5009451;28;19941;-84
2021/11/26 10:42:07;;;;;;;;;;;;;;;3.67;nan;99013.28;5006079;28;20442;-83
2021/11/26 10:44:43;;;;;;;;;;;;;;;3.64;nan;99004.88;4985322;28;19956;-84
2021/11/26 10:47:18;;;;;;;44.78;23.88;;;;;;;3.58;nan;99006.31;4987270;28;19917;-83
2021/11/26 10:49:50;;;;;;;45.15;24.45;;;;;;;3.53;nan;98992.84;4976005;28;20035;-84
2021/11/26 10:52:50;;;;;;;47.92;25.52;;;;;;;3.63;nan;98983.16;4999986;28;20042;-84
2021/11/26 10:58:54;;;;;;;47.15;24.25;;;;;;;3.73;nan;98983.94;5002241;28;20045;-82
2021/11/26 11:01:06;;;;;;;43.97;24.08;;;;;;;3.76;nan;98967.13;4994902;28;20038;-84
2021/11/26 11:03:31;;;;;;;47.50;26.38;;;;;;;3.67;nan;98966.22;4982215;28;20097;-83
2021/11/26 11:05:57;;;;;;;45.58;23.77;;;;;;;3.65;nan;98967.31;4991195;28;20495;-83
2021/11/26 11:08:24;;;;;;;43.65;23.50;;;;;;;3.83;nan;98970.81;4999129;28;20054;-83
2021/11/26 11:10:51;;;;;;;45.00;24.85;;;;;;;3.92;nan;98961.25;5000484;28;20034;-83
2021/11/26 11:13:29;;;;;;;43.33;24.40;;;;;;;3.79;nan;98957.22;5001412;28;20412;-83
2021/11/26 11:16:10;;;;;;;43.13;23.63;;;;;;;3.78;nan;98955.56;5005175;28;20057;-83
2021/11/26 11:18:38;;;;;;;45.00;24.52;;;;;;;3.82;nan;98943.03;5003606;28;20034;-83
2021/11/26 11:21:05;;;;;;;48.75;25.92;;;;;;;3.89;nan;98931.00;5002258;28;20044;-83
2021/11/26 11:23:31;;;;;;;47.08;24.83;;;;;;;3.97;nan;98927.63;4986881;28;20503;-83
2021/11/26 11:25:58;;;;;;;46.83;25.35;;;;;;;4.02;nan;98926.22;4994601;28;20038;-83
2021/11/26 11:28:24;;;;;;;43.60;24.13;;;;;;;4.11;nan;98923.69;5013594;28;20045;-84
2021/11/26 11:30:50;;;;;;;45.97;24.02;;;;;;;4.11;nan;98921.06;5012435;28;20077;-84
2021/11/26 11:33:17;;;;;;;47.55;25.67;;;;;;;3.97;nan;98910.16;5002370;28;20038;-83
2021/11/26 11:35:46;;;;;;;46.75;24.17;;;;;;;3.97;nan;98912.75;5018858;28;20078;-82
2021/11/26 11:38:12;;;;;;;46.72;24.77;;;;;;;3.91;nan;98913.38;5001448;28;20119;-83
2021/11/26 11:40:42;;;;;;;45.30;23.60;;;;;;;3.92;nan;98909.78;5006132;28;20034;-83
2021/11/26 11:43:26;;;;;;;46.30;25.10;;;;;;;3.90;nan;98903.88;4999556;28;20030;-83
2021/11/26 11:46:05;;;;;;;45.67;23.27;;;;;;;3.90;nan;98903.06;4986368;28;20034;-83